sensor_id;sensor_type;location;lat;lon;timestamp;P1;P2;P0
76679;PMS5003;65597;51.520;-0.224;2022-12-07T00:00:35;21;21;
76679;PMS5003;65597;51.520;-0.224;2022-12-07T00:03:01;21;17;
76679;PMS5003;65597;51.520;-0.224;2022-12-07T00:05:26;19;18;
76679;PMS5003;65597;51.520;-0.224;2022-12-07T00:07:51;18;17;
76679;PMS5003;65597;51.520;-0.224;2022-12-07T00:10:17;17;15;
76679;PMS5003;65597;51.520;-0.224;2022-12-07T00:12:42;16;16;
76679;PMS5003;65597;51.520;-0.224;2022-12-07T00:15:08;14;13;
76679;PMS5003;65597;51.520;-0.224;2022-12-07T00:17:33;14;14;
76679;PMS5003;65597;51.520;-0.224;2022-12-07T00:19:59;14;12;
76679;PMS5003;65597;51.520;-0.224;2022-12-07T00:22:24;18;16;
76679;PMS5003;65597;51.520;-0.224;2022-12-07T00:24:50;14;13;
76679;PMS5003;65597;51.520;-0.224;2022-12-07T00:27:15;19;17;
76679;PMS5003;65597;51.520;-0.224;2022-12-07T00:29:41;16;14;
76679;PMS5003;65597;51.520;-0.224;2022-12-07T00:32:06;15;14;
76679;PMS5003;65597;51.520;-0.224;2022-12-07T00:34:31;12;12;
76679;PMS5003;65597;51.520;-0.224;2022-12-07T00:36:57;17;15;
76679;PMS5003;65597;51.520;-0.224;2022-12-07T00:39:22;10;10;
76679;PMS5003;65597;51.520;-0.224;2022-12-07T00:41:48;13;12;
76679;PMS5003;65597;51.520;-0.224;2022-12-07T00:44:13;13;13;
76679;PMS5003;65597;51.520;-0.224;2022-12-07T00:46:39;14;13;
76679;PMS5003;65597;51.520;-0.224;2022-12-07T00:49:05;19;14;
76679;PMS5003;65597;51.520;-0.224;2022-12-07T00:51:30;13;12;
76679;PMS5003;65597;51.520;-0.224;2022-12-07T00:53:56;14;13;
76679;PMS5003;65597;51.520;-0.224;2022-12-07T00:56:22;12;12;
76679;PMS5003;65597;51.520;-0.224;2022-12-07T00:58:49;11;11;
76679;PMS5003;65597;51.520;-0.224;2022-12-07T01:01:12;13;11;
76679;PMS5003;65597;51.520;-0.224;2022-12-07T01:03:37;14;13;
76679;PMS5003;65597;51.520;-0.224;2022-12-07T01:06:03;20;15;
76679;PMS5003;65597;51.520;-0.224;2022-12-07T01:08:28;14;13;
76679;PMS5003;65597;51.520;-0.224;2022-12-07T01:10:57;16;15;
76679;PMS5003;65597;51.520;-0.224;2022-12-07T01:13:19;16;14;
76679;PMS5003;65597;51.520;-0.224;2022-12-07T01:15:44;13;12;
76679;PMS5003;65597;51.520;-0.224;2022-12-07T01:18:09;19;11;
76679;PMS5003;65597;51.520;-0.224;2022-12-07T01:20:35;14;12;
76679;PMS5003;65597;51.520;-0.224;2022-12-07T01:23:00;15;12;
76679;PMS5003;65597;51.520;-0.224;2022-12-07T01:25:25;11;10;
76679;PMS5003;65597;51.520;-0.224;2022-12-07T01:27:51;18;13;
76679;PMS5003;65597;51.520;-0.224;2022-12-07T01:30:16;14;13;
76679;PMS5003;65597;51.520;-0.224;2022-12-07T01:32:42;13;13;
76679;PMS5003;65597;51.520;-0.224;2022-12-07T01:35:08;18;16;
76679;PMS5003;65597;51.520;-0.224;2022-12-07T01:37:34;13;13;
76679;PMS5003;65597;51.520;-0.224;2022-12-07T01:39:58;11;10;
76679;PMS5003;65597;51.520;-0.224;2022-12-07T01:42:23;16;14;
76679;PMS5003;65597;51.520;-0.224;2022-12-07T01:47:14;12;11;
76679;PMS5003;65597;51.520;-0.224;2022-12-07T01:49:40;15;14;
76679;PMS5003;65597;51.520;-0.224;2022-12-07T01:52:09;17;15;
76679;PMS5003;65597;51.520;-0.224;2022-12-07T01:54:31;17;13;
76679;PMS5003;65597;51.520;-0.224;2022-12-07T01:56:56;15;13;
76679;PMS5003;65597;51.520;-0.224;2022-12-07T01:59:22;16;13;
76679;PMS5003;65597;51.520;-0.224;2022-12-07T02:01:47;14;14;
76679;PMS5003;65597;51.520;-0.224;2022-12-07T02:04:13;13;12;
76679;PMS5003;65597;51.520;-0.224;2022-12-07T02:06:38;18;15;
76679;PMS5003;65597;51.520;-0.224;2022-12-07T02:09:04;14;12;
76679;PMS5003;65597;51.520;-0.224;2022-12-07T02:11:29;15;15;
76679;PMS5003;65597;51.520;-0.224;2022-12-07T02:13:54;15;13;
76679;PMS5003;65597;51.520;-0.224;2022-12-07T02:16:23;14;14;
76679;PMS5003;65597;51.520;-0.224;2022-12-07T02:18:48;13;13;
76679;PMS5003;65597;51.520;-0.224;2022-12-07T02:21:11;17;14;
76679;PMS5003;65597;51.520;-0.224;2022-12-07T02:23:43;18;16;
76679;PMS5003;65597;51.520;-0.224;2022-12-07T02:26:08;16;13;
76679;PMS5003;65597;51.520;-0.224;2022-12-07T02:28:27;18;16;
76679;PMS5003;65597;51.520;-0.224;2022-12-07T02:30:52;18;17;
76679;PMS5003;65597;51.520;-0.224;2022-12-07T02:33:18;14;14;
76679;PMS5003;65597;51.520;-0.224;2022-12-07T02:35:44;20;18;
76679;PMS5003;65597;51.520;-0.224;2022-12-07T02:38:10;22;19;
76679;PMS5003;65597;51.520;-0.224;2022-12-07T02:40:35;16;16;
76679;PMS5003;65597;51.520;-0.224;2022-12-07T02:43:00;21;19;
76679;PMS5003;65597;51.520;-0.224;2022-12-07T02:45:24;17;16;
76679;PMS5003;65597;51.520;-0.224;2022-12-07T02:47:50;22;15;
76679;PMS5003;65597;51.520;-0.224;2022-12-07T02:50:15;21;20;
76679;PMS5003;65597;51.520;-0.224;2022-12-07T02:52:40;17;16;
76679;PMS5003;65597;51.520;-0.224;2022-12-07T02:55:06;18;16;
76679;PMS5003;65597;51.520;-0.224;2022-12-07T02:57:36;18;16;
76679;PMS5003;65597;51.520;-0.224;2022-12-07T03:00:00;17;16;
76679;PMS5003;65597;51.520;-0.224;2022-12-07T03:02:24;16;15;
76679;PMS5003;65597;51.520;-0.224;2022-12-07T03:04:50;23;20;
76679;PMS5003;65597;51.520;-0.224;2022-12-07T03:07:16;19;16;
76679;PMS5003;65597;51.520;-0.224;2022-12-07T03:09:41;16;16;
76679;PMS5003;65597;51.520;-0.224;2022-12-07T03:12:06;21;17;
76679;PMS5003;65597;51.520;-0.224;2022-12-07T03:14:30;19;17;
76679;PMS5003;65597;51.520;-0.224;2022-12-07T03:16:55;18;17;
76679;PMS5003;65597;51.520;-0.224;2022-12-07T03:19:20;18;18;
76679;PMS5003;65597;51.520;-0.224;2022-12-07T03:21:47;17;14;
76679;PMS5003;65597;51.520;-0.224;2022-12-07T03:24:13;17;14;
76679;PMS5003;65597;51.520;-0.224;2022-12-07T03:26:38;20;17;
76679;PMS5003;65597;51.520;-0.224;2022-12-07T03:29:05;17;14;
76679;PMS5003;65597;51.520;-0.224;2022-12-07T03:31:28;14;14;
76679;PMS5003;65597;51.520;-0.224;2022-12-07T03:33:54;17;17;
76679;PMS5003;65597;51.520;-0.224;2022-12-07T03:36:19;23;19;
76679;PMS5003;65597;51.520;-0.224;2022-12-07T03:38:44;14;14;
76679;PMS5003;65597;51.520;-0.224;2022-12-07T03:41:11;19;17;
76679;PMS5003;65597;51.520;-0.224;2022-12-07T03:43:35;18;16;
76679;PMS5003;65597;51.520;-0.224;2022-12-07T03:46:01;16;14;
76679;PMS5003;65597;51.520;-0.224;2022-12-07T03:48:27;23;19;
76679;PMS5003;65597;51.520;-0.224;2022-12-07T03:50:52;19;16;
76679;PMS5003;65597;51.520;-0.224;2022-12-07T03:53:18;16;14;
76679;PMS5003;65597;51.520;-0.224;2022-12-07T03:55:42;17;15;
76679;PMS5003;65597;51.520;-0.224;2022-12-07T03:58:09;16;13;
76679;PMS5003;65597;51.520;-0.224;2022-12-07T04:00:33;18;16;
76679;PMS5003;65597;51.520;-0.224;2022-12-07T04:02:58;17;16;
76679;PMS5003;65597;51.520;-0.224;2022-12-07T04:05:23;21;16;
76679;PMS5003;65597;51.520;-0.224;2022-12-07T04:07:49;21;15;
76679;PMS5003;65597;51.520;-0.224;2022-12-07T04:10:15;19;17;
76679;PMS5003;65597;51.520;-0.224;2022-12-07T04:12:40;13;13;
76679;PMS5003;65597;51.520;-0.224;2022-12-07T04:15:06;18;16;
76679;PMS5003;65597;51.520;-0.224;2022-12-07T04:17:30;17;17;
76679;PMS5003;65597;51.520;-0.224;2022-12-07T04:19:56;18;18;
76679;PMS5003;65597;51.520;-0.224;2022-12-07T04:22:21;14;14;
76679;PMS5003;65597;51.520;-0.224;2022-12-07T04:24:46;13;13;
76679;PMS5003;65597;51.520;-0.224;2022-12-07T04:27:12;14;14;
76679;PMS5003;65597;51.520;-0.224;2022-12-07T04:29:38;12;12;
76679;PMS5003;65597;51.520;-0.224;2022-12-07T04:32:03;13;13;
76679;PMS5003;65597;51.520;-0.224;2022-12-07T04:34:29;12;12;
76679;PMS5003;65597;51.520;-0.224;2022-12-07T04:36:54;13;12;
76679;PMS5003;65597;51.520;-0.224;2022-12-07T04:39:21;14;12;
76679;PMS5003;65597;51.520;-0.224;2022-12-07T04:41:45;18;13;
76679;PMS5003;65597;51.520;-0.224;2022-12-07T04:44:11;13;13;
76679;PMS5003;65597;51.520;-0.224;2022-12-07T04:46:36;12;11;
76679;PMS5003;65597;51.520;-0.224;2022-12-07T04:49:02;19;17;
76679;PMS5003;65597;51.520;-0.224;2022-12-07T04:51:28;17;14;
76679;PMS5003;65597;51.520;-0.224;2022-12-07T04:53:53;15;13;
76679;PMS5003;65597;51.520;-0.224;2022-12-07T04:56:18;12;11;
76679;PMS5003;65597;51.520;-0.224;2022-12-07T04:58:44;14;13;
76679;PMS5003;65597;51.520;-0.224;2022-12-07T05:01:09;19;12;
76679;PMS5003;65597;51.520;-0.224;2022-12-07T05:03:35;13;12;
76679;PMS5003;65597;51.520;-0.224;2022-12-07T05:05:59;15;12;
76679;PMS5003;65597;51.520;-0.224;2022-12-07T05:08:25;14;12;
76679;PMS5003;65597;51.520;-0.224;2022-12-07T05:10:51;12;12;
76679;PMS5003;65597;51.520;-0.224;2022-12-07T05:13:16;11;9;
76679;PMS5003;65597;51.520;-0.224;2022-12-07T05:15:41;11;10;
76679;PMS5003;65597;51.520;-0.224;2022-12-07T05:18:07;13;11;
76679;PMS5003;65597;51.520;-0.224;2022-12-07T05:20:32;11;11;
76679;PMS5003;65597;51.520;-0.224;2022-12-07T05:22:58;12;10;
76679;PMS5003;65597;51.520;-0.224;2022-12-07T05:25:23;15;11;
76679;PMS5003;65597;51.520;-0.224;2022-12-07T05:27:48;11;10;
76679;PMS5003;65597;51.520;-0.224;2022-12-07T05:30:14;12;11;
76679;PMS5003;65597;51.520;-0.224;2022-12-07T05:32:39;16;14;
76679;PMS5003;65597;51.520;-0.224;2022-12-07T05:35:05;12;11;
76679;PMS5003;65597;51.520;-0.224;2022-12-07T05:37:30;10;10;
76679;PMS5003;65597;51.520;-0.224;2022-12-07T05:39:56;15;12;
76679;PMS5003;65597;51.520;-0.224;2022-12-07T05:42:21;18;12;
76679;PMS5003;65597;51.520;-0.224;2022-12-07T05:44:47;11;10;
76679;PMS5003;65597;51.520;-0.224;2022-12-07T05:47:13;12;11;
76679;PMS5003;65597;51.520;-0.224;2022-12-07T05:49:38;10;10;
76679;PMS5003;65597;51.520;-0.224;2022-12-07T05:52:03;17;14;
76679;PMS5003;65597;51.520;-0.224;2022-12-07T05:54:28;22;17;
76679;PMS5003;65597;51.520;-0.224;2022-12-07T05:56:54;13;11;
76679;PMS5003;65597;51.520;-0.224;2022-12-07T05:59:19;12;12;
76679;PMS5003;65597;51.520;-0.224;2022-12-07T06:01:45;9;9;
76679;PMS5003;65597;51.520;-0.224;2022-12-07T06:04:10;12;11;
76679;PMS5003;65597;51.520;-0.224;2022-12-07T06:06:36;10;9;
76679;PMS5003;65597;51.520;-0.224;2022-12-07T06:09:01;14;13;
76679;PMS5003;65597;51.520;-0.224;2022-12-07T06:11:27;12;10;
76679;PMS5003;65597;51.520;-0.224;2022-12-07T06:13:52;16;12;
76679;PMS5003;65597;51.520;-0.224;2022-12-07T06:16:18;12;11;
76679;PMS5003;65597;51.520;-0.224;2022-12-07T06:18:43;10;10;
76679;PMS5003;65597;51.520;-0.224;2022-12-07T06:21:09;14;12;
76679;PMS5003;65597;51.520;-0.224;2022-12-07T06:23:34;11;11;
76679;PMS5003;65597;51.520;-0.224;2022-12-07T06:26:00;14;12;
76679;PMS5003;65597;51.520;-0.224;2022-12-07T06:28:25;14;12;
76679;PMS5003;65597;51.520;-0.224;2022-12-07T06:33:16;11;11;
76679;PMS5003;65597;51.520;-0.224;2022-12-07T06:35:42;12;11;
76679;PMS5003;65597;51.520;-0.224;2022-12-07T06:38:08;14;14;
76679;PMS5003;65597;51.520;-0.224;2022-12-07T06:40:33;15;12;
76679;PMS5003;65597;51.520;-0.224;2022-12-07T06:42:58;12;12;
76679;PMS5003;65597;51.520;-0.224;2022-12-07T06:45:24;12;11;
76679;PMS5003;65597;51.520;-0.224;2022-12-07T06:47:50;14;13;
76679;PMS5003;65597;51.520;-0.224;2022-12-07T06:50:15;15;12;
76679;PMS5003;65597;51.520;-0.224;2022-12-07T06:52:41;19;15;
76679;PMS5003;65597;51.520;-0.224;2022-12-07T06:55:06;19;17;
76679;PMS5003;65597;51.520;-0.224;2022-12-07T06:57:32;18;14;
76679;PMS5003;65597;51.520;-0.224;2022-12-07T06:59:57;16;15;
76679;PMS5003;65597;51.520;-0.224;2022-12-07T07:02:23;21;15;
76679;PMS5003;65597;51.520;-0.224;2022-12-07T07:04:49;19;16;
76679;PMS5003;65597;51.520;-0.224;2022-12-07T07:07:14;15;15;
76679;PMS5003;65597;51.520;-0.224;2022-12-07T07:09:40;19;17;
76679;PMS5003;65597;51.520;-0.224;2022-12-07T07:12:05;22;17;
76679;PMS5003;65597;51.520;-0.224;2022-12-07T07:14:31;17;15;
76679;PMS5003;65597;51.520;-0.224;2022-12-07T07:16:56;20;17;
76679;PMS5003;65597;51.520;-0.224;2022-12-07T07:19:21;20;17;
76679;PMS5003;65597;51.520;-0.224;2022-12-07T07:21:46;23;21;
76679;PMS5003;65597;51.520;-0.224;2022-12-07T07:24:12;18;17;
76679;PMS5003;65597;51.520;-0.224;2022-12-07T07:26:37;14;14;
76679;PMS5003;65597;51.520;-0.224;2022-12-07T07:29:02;13;13;
76679;PMS5003;65597;51.520;-0.224;2022-12-07T07:31:28;19;18;
76679;PMS5003;65597;51.520;-0.224;2022-12-07T07:33:54;18;18;
76679;PMS5003;65597;51.520;-0.224;2022-12-07T07:36:19;20;18;
76679;PMS5003;65597;51.520;-0.224;2022-12-07T07:38:44;27;21;
76679;PMS5003;65597;51.520;-0.224;2022-12-07T07:41:10;15;15;
76679;PMS5003;65597;51.520;-0.224;2022-12-07T07:43:36;21;19;
76679;PMS5003;65597;51.520;-0.224;2022-12-07T07:46:01;20;17;
76679;PMS5003;65597;51.520;-0.224;2022-12-07T07:48:27;22;17;
76679;PMS5003;65597;51.520;-0.224;2022-12-07T07:50:52;17;16;
76679;PMS5003;65597;51.520;-0.224;2022-12-07T07:53:17;20;19;
76679;PMS5003;65597;51.520;-0.224;2022-12-07T07:58:09;18;16;
76679;PMS5003;65597;51.520;-0.224;2022-12-07T08:00:34;20;18;
76679;PMS5003;65597;51.520;-0.224;2022-12-07T08:03:00;19;18;
76679;PMS5003;65597;51.520;-0.224;2022-12-07T08:05:26;18;17;
76679;PMS5003;65597;51.520;-0.224;2022-12-07T08:07:51;29;21;
76679;PMS5003;65597;51.520;-0.224;2022-12-07T08:10:16;27;23;
76679;PMS5003;65597;51.520;-0.224;2022-12-07T08:12:42;21;19;
76679;PMS5003;65597;51.520;-0.224;2022-12-07T08:15:08;23;21;
76679;PMS5003;65597;51.520;-0.224;2022-12-07T08:17:33;28;23;
76679;PMS5003;65597;51.520;-0.224;2022-12-07T08:19:58;28;23;
76679;PMS5003;65597;51.520;-0.224;2022-12-07T08:22:24;22;20;
76679;PMS5003;65597;51.520;-0.224;2022-12-07T08:24:50;26;23;
76679;PMS5003;65597;51.520;-0.224;2022-12-07T08:27:16;28;24;
76679;PMS5003;65597;51.520;-0.224;2022-12-07T08:29:41;24;22;
76679;PMS5003;65597;51.520;-0.224;2022-12-07T08:32:06;22;21;
76679;PMS5003;65597;51.520;-0.224;2022-12-07T08:34:32;24;22;
76679;PMS5003;65597;51.520;-0.224;2022-12-07T08:36:57;32;28;
76679;PMS5003;65597;51.520;-0.224;2022-12-07T08:39:22;26;22;
76679;PMS5003;65597;51.520;-0.224;2022-12-07T08:41:48;27;23;
76679;PMS5003;65597;51.520;-0.224;2022-12-07T08:44:14;26;24;
76679;PMS5003;65597;51.520;-0.224;2022-12-07T08:46:40;26;21;
76679;PMS5003;65597;51.520;-0.224;2022-12-07T08:49:06;27;23;
76679;PMS5003;65597;51.520;-0.224;2022-12-07T08:51:31;24;21;
76679;PMS5003;65597;51.520;-0.224;2022-12-07T08:53:57;24;21;
76679;PMS5003;65597;51.520;-0.224;2022-12-07T08:56:22;23;20;
76679;PMS5003;65597;51.520;-0.224;2022-12-07T08:58:48;33;29;
76679;PMS5003;65597;51.520;-0.224;2022-12-07T09:01:14;33;30;
76679;PMS5003;65597;51.520;-0.224;2022-12-07T09:03:39;31;27;
76679;PMS5003;65597;51.520;-0.224;2022-12-07T09:06:05;32;29;
76679;PMS5003;65597;51.520;-0.224;2022-12-07T09:08:31;34;32;
76679;PMS5003;65597;51.520;-0.224;2022-12-07T09:10:55;35;31;
76679;PMS5003;65597;51.520;-0.224;2022-12-07T09:13:20;28;23;
76679;PMS5003;65597;51.520;-0.224;2022-12-07T09:15:46;23;22;
76679;PMS5003;65597;51.520;-0.224;2022-12-07T09:18:12;28;26;
76679;PMS5003;65597;51.520;-0.224;2022-12-07T09:20:37;22;22;
76679;PMS5003;65597;51.520;-0.224;2022-12-07T09:23:02;27;23;
76679;PMS5003;65597;51.520;-0.224;2022-12-07T09:25:27;34;27;
76679;PMS5003;65597;51.520;-0.224;2022-12-07T09:27:56;26;24;
76679;PMS5003;65597;51.520;-0.224;2022-12-07T09:30:18;28;26;
76679;PMS5003;65597;51.520;-0.224;2022-12-07T09:32:44;32;28;
76679;PMS5003;65597;51.520;-0.224;2022-12-07T09:35:09;28;23;
76679;PMS5003;65597;51.520;-0.224;2022-12-07T09:37:34;29;25;
76679;PMS5003;65597;51.520;-0.224;2022-12-07T09:39:59;35;28;
76679;PMS5003;65597;51.520;-0.224;2022-12-07T09:42:27;23;23;
76679;PMS5003;65597;51.520;-0.224;2022-12-07T09:44:50;25;23;
76679;PMS5003;65597;51.520;-0.224;2022-12-07T09:47:16;24;23;
76679;PMS5003;65597;51.520;-0.224;2022-12-07T09:49:42;32;27;
76679;PMS5003;65597;51.520;-0.224;2022-12-07T09:54:34;20;20;
76679;PMS5003;65597;51.520;-0.224;2022-12-07T09:56:58;22;22;
76679;PMS5003;65597;51.520;-0.224;2022-12-07T09:59:24;26;20;
76679;PMS5003;65597;51.520;-0.224;2022-12-07T10:01:50;19;18;
76679;PMS5003;65597;51.520;-0.224;2022-12-07T10:04:16;23;21;
76679;PMS5003;65597;51.520;-0.224;2022-12-07T10:06:41;18;17;
76679;PMS5003;65597;51.520;-0.224;2022-12-07T10:09:10;22;22;
76679;PMS5003;65597;51.520;-0.224;2022-12-07T10:11:31;23;22;
76679;PMS5003;65597;51.520;-0.224;2022-12-07T10:14:09;21;21;
76679;PMS5003;65597;51.520;-0.224;2022-12-07T10:16:32;21;21;
76679;PMS5003;65597;51.520;-0.224;2022-12-07T10:18:47;24;21;
76679;PMS5003;65597;51.520;-0.224;2022-12-07T10:21:14;20;19;
76679;PMS5003;65597;51.520;-0.224;2022-12-07T10:23:39;29;23;
76679;PMS5003;65597;51.520;-0.224;2022-12-07T10:28:33;21;20;
76679;PMS5003;65597;51.520;-0.224;2022-12-07T10:30:56;29;24;
76679;PMS5003;65597;51.520;-0.224;2022-12-07T10:35:46;20;19;
76679;PMS5003;65597;51.520;-0.224;2022-12-07T10:38:16;31;25;
76679;PMS5003;65597;51.520;-0.224;2022-12-07T10:40:37;29;23;
76679;PMS5003;65597;51.520;-0.224;2022-12-07T10:43:04;22;19;
76679;PMS5003;65597;51.520;-0.224;2022-12-07T10:45:28;24;22;
76679;PMS5003;65597;51.520;-0.224;2022-12-07T10:47:55;28;25;
76679;PMS5003;65597;51.520;-0.224;2022-12-07T10:50:26;22;20;
76679;PMS5003;65597;51.520;-0.224;2022-12-07T10:52:50;29;24;
76679;PMS5003;65597;51.520;-0.224;2022-12-07T10:55:13;21;20;
76679;PMS5003;65597;51.520;-0.224;2022-12-07T10:57:37;21;19;
76679;PMS5003;65597;51.520;-0.224;2022-12-07T11:00:03;20;19;
76679;PMS5003;65597;51.520;-0.224;2022-12-07T11:02:31;19;19;
76679;PMS5003;65597;51.520;-0.224;2022-12-07T11:04:55;28;25;
76679;PMS5003;65597;51.520;-0.224;2022-12-07T11:07:18;18;17;
76679;PMS5003;65597;51.520;-0.224;2022-12-07T11:12:09;20;19;
76679;PMS5003;65597;51.520;-0.224;2022-12-07T11:14:35;20;18;
76679;PMS5003;65597;51.520;-0.224;2022-12-07T11:16:59;19;18;
76679;PMS5003;65597;51.520;-0.224;2022-12-07T11:19:28;22;21;
76679;PMS5003;65597;51.520;-0.224;2022-12-07T11:21:51;21;19;
76679;PMS5003;65597;51.520;-0.224;2022-12-07T11:24:15;20;18;
76679;PMS5003;65597;51.520;-0.224;2022-12-07T11:26:48;21;17;
76679;PMS5003;65597;51.520;-0.224;2022-12-07T11:29:11;18;17;
76679;PMS5003;65597;51.520;-0.224;2022-12-07T11:31:32;17;15;
76679;PMS5003;65597;51.520;-0.224;2022-12-07T11:33:57;17;16;
76679;PMS5003;65597;51.520;-0.224;2022-12-07T11:36:29;19;17;
76679;PMS5003;65597;51.520;-0.224;2022-12-07T11:38:49;20;18;
76679;PMS5003;65597;51.520;-0.224;2022-12-07T11:41:13;14;14;
76679;PMS5003;65597;51.520;-0.224;2022-12-07T11:43:40;18;17;
76679;PMS5003;65597;51.520;-0.224;2022-12-07T11:46:04;16;16;
76679;PMS5003;65597;51.520;-0.224;2022-12-07T11:48:32;16;15;
76679;PMS5003;65597;51.520;-0.224;2022-12-07T11:50:56;16;14;
76679;PMS5003;65597;51.520;-0.224;2022-12-07T11:53:21;16;15;
76679;PMS5003;65597;51.520;-0.224;2022-12-07T11:55:47;11;9;
76679;PMS5003;65597;51.520;-0.224;2022-12-07T11:58:15;17;13;
76679;PMS5003;65597;51.520;-0.224;2022-12-07T12:00:37;16;15;
76679;PMS5003;65597;51.520;-0.224;2022-12-07T12:03:03;21;17;
76679;PMS5003;65597;51.520;-0.224;2022-12-07T12:05:27;15;14;
76679;PMS5003;65597;51.520;-0.224;2022-12-07T12:07:54;13;12;
76679;PMS5003;65597;51.520;-0.224;2022-12-07T12:10:20;12;10;
76679;PMS5003;65597;51.520;-0.224;2022-12-07T12:12:48;11;10;
76679;PMS5003;65597;51.520;-0.224;2022-12-07T12:20:03;14;12;
76679;PMS5003;65597;51.520;-0.224;2022-12-07T12:22:28;12;10;
76679;PMS5003;65597;51.520;-0.224;2022-12-07T12:24:52;12;11;
76679;PMS5003;65597;51.520;-0.224;2022-12-07T12:27:19;11;11;
76679;PMS5003;65597;51.520;-0.224;2022-12-07T12:29:43;11;10;
76679;PMS5003;65597;51.520;-0.224;2022-12-07T12:32:13;11;10;
76679;PMS5003;65597;51.520;-0.224;2022-12-07T12:34:38;11;10;
76679;PMS5003;65597;51.520;-0.224;2022-12-07T12:37:00;12;10;
76679;PMS5003;65597;51.520;-0.224;2022-12-07T12:39:25;11;11;
76679;PMS5003;65597;51.520;-0.224;2022-12-07T12:41:52;12;11;
76679;PMS5003;65597;51.520;-0.224;2022-12-07T12:46:48;13;11;
76679;PMS5003;65597;51.520;-0.224;2022-12-07T12:51:36;14;13;
76679;PMS5003;65597;51.520;-0.224;2022-12-07T12:54:03;12;12;
76679;PMS5003;65597;51.520;-0.224;2022-12-07T12:56:28;12;11;
76679;PMS5003;65597;51.520;-0.224;2022-12-07T12:58:49;15;14;
76679;PMS5003;65597;51.520;-0.224;2022-12-07T13:03:39;17;15;
76679;PMS5003;65597;51.520;-0.224;2022-12-07T13:08:31;18;17;
76679;PMS5003;65597;51.520;-0.224;2022-12-07T13:10:56;18;14;
76679;PMS5003;65597;51.520;-0.224;2022-12-07T13:13:29;19;17;
76679;PMS5003;65597;51.520;-0.224;2022-12-07T13:15:49;26;18;
76679;PMS5003;65597;51.520;-0.224;2022-12-07T13:18:23;16;14;
76679;PMS5003;65597;51.520;-0.224;2022-12-07T13:20:40;17;15;
76679;PMS5003;65597;51.520;-0.224;2022-12-07T13:23:04;17;16;
76679;PMS5003;65597;51.520;-0.224;2022-12-07T13:25:31;14;13;
76679;PMS5003;65597;51.520;-0.224;2022-12-07T13:27:57;24;17;
76679;PMS5003;65597;51.520;-0.224;2022-12-07T13:30:21;14;12;
76679;PMS5003;65597;51.520;-0.224;2022-12-07T13:32:51;10;10;
76679;PMS5003;65597;51.520;-0.224;2022-12-07T13:37:38;11;11;
76679;PMS5003;65597;51.520;-0.224;2022-12-07T13:42:29;17;13;
76679;PMS5003;65597;51.520;-0.224;2022-12-07T13:44:54;11;11;
76679;PMS5003;65597;51.520;-0.224;2022-12-07T13:47:30;10;10;
76679;PMS5003;65597;51.520;-0.224;2022-12-07T13:49:46;12;12;
76679;PMS5003;65597;51.520;-0.224;2022-12-07T13:52:13;13;12;
76679;PMS5003;65597;51.520;-0.224;2022-12-07T13:57:02;10;10;
76679;PMS5003;65597;51.520;-0.224;2022-12-07T13:59:27;17;13;
76679;PMS5003;65597;51.520;-0.224;2022-12-07T14:01:53;23;22;
76679;PMS5003;65597;51.520;-0.224;2022-12-07T14:04:24;11;10;
76679;PMS5003;65597;51.520;-0.224;2022-12-07T14:06:47;18;13;
76679;PMS5003;65597;51.520;-0.224;2022-12-07T14:11:35;20;14;
76679;PMS5003;65597;51.520;-0.224;2022-12-07T14:14:01;19;17;
76679;PMS5003;65597;51.520;-0.224;2022-12-07T14:16:27;18;15;
76679;PMS5003;65597;51.520;-0.224;2022-12-07T14:18:51;19;17;
76679;PMS5003;65597;51.520;-0.224;2022-12-07T14:21:17;19;18;
76679;PMS5003;65597;51.520;-0.224;2022-12-07T14:23:42;14;14;
76679;PMS5003;65597;51.520;-0.224;2022-12-07T14:26:08;15;13;
76679;PMS5003;65597;51.520;-0.224;2022-12-07T14:28:33;22;17;
76679;PMS5003;65597;51.520;-0.224;2022-12-07T14:30:58;13;12;
76679;PMS5003;65597;51.520;-0.224;2022-12-07T14:33:24;16;13;
76679;PMS5003;65597;51.520;-0.224;2022-12-07T14:35:49;14;12;
76679;PMS5003;65597;51.520;-0.224;2022-12-07T14:38:15;13;13;
76679;PMS5003;65597;51.520;-0.224;2022-12-07T14:40:40;17;15;
76679;PMS5003;65597;51.520;-0.224;2022-12-07T14:43:08;18;17;
76679;PMS5003;65597;51.520;-0.224;2022-12-07T14:45:31;21;19;
76679;PMS5003;65597;51.520;-0.224;2022-12-07T14:47:56;21;20;
76679;PMS5003;65597;51.520;-0.224;2022-12-07T14:50:21;19;18;
76679;PMS5003;65597;51.520;-0.224;2022-12-07T14:52:48;18;17;
76679;PMS5003;65597;51.520;-0.224;2022-12-07T14:55:13;17;16;
76679;PMS5003;65597;51.520;-0.224;2022-12-07T14:57:38;17;17;
76679;PMS5003;65597;51.520;-0.224;2022-12-07T15:00:04;22;18;
76679;PMS5003;65597;51.520;-0.224;2022-12-07T15:02:29;22;20;
76679;PMS5003;65597;51.520;-0.224;2022-12-07T15:04:55;20;19;
76679;PMS5003;65597;51.520;-0.224;2022-12-07T15:07:20;18;17;
76679;PMS5003;65597;51.520;-0.224;2022-12-07T15:09:46;18;17;
76679;PMS5003;65597;51.520;-0.224;2022-12-07T15:12:11;21;20;
76679;PMS5003;65597;51.520;-0.224;2022-12-07T15:14:37;22;18;
76679;PMS5003;65597;51.520;-0.224;2022-12-07T15:17:02;19;18;
76679;PMS5003;65597;51.520;-0.224;2022-12-07T15:19:28;19;19;
76679;PMS5003;65597;51.520;-0.224;2022-12-07T15:21:54;16;14;
76679;PMS5003;65597;51.520;-0.224;2022-12-07T15:24:19;19;18;
76679;PMS5003;65597;51.520;-0.224;2022-12-07T15:26:44;18;17;
76679;PMS5003;65597;51.520;-0.224;2022-12-07T15:29:10;21;18;
76679;PMS5003;65597;51.520;-0.224;2022-12-07T15:31:36;21;21;
76679;PMS5003;65597;51.520;-0.224;2022-12-07T15:34:01;22;21;
76679;PMS5003;65597;51.520;-0.224;2022-12-07T15:36:27;19;19;
76679;PMS5003;65597;51.520;-0.224;2022-12-07T15:38:52;33;24;
76679;PMS5003;65597;51.520;-0.224;2022-12-07T15:41:18;20;17;
76679;PMS5003;65597;51.520;-0.224;2022-12-07T15:43:43;20;17;
76679;PMS5003;65597;51.520;-0.224;2022-12-07T15:46:09;17;17;
76679;PMS5003;65597;51.520;-0.224;2022-12-07T15:48:35;22;20;
76679;PMS5003;65597;51.520;-0.224;2022-12-07T15:51:02;19;17;
76679;PMS5003;65597;51.520;-0.224;2022-12-07T15:53:26;19;17;
76679;PMS5003;65597;51.520;-0.224;2022-12-07T15:55:51;20;18;
76679;PMS5003;65597;51.520;-0.224;2022-12-07T15:58:17;19;18;
76679;PMS5003;65597;51.520;-0.224;2022-12-07T16:00:43;13;13;
76679;PMS5003;65597;51.520;-0.224;2022-12-07T16:03:08;16;15;
76679;PMS5003;65597;51.520;-0.224;2022-12-07T16:05:34;15;15;
76679;PMS5003;65597;51.520;-0.224;2022-12-07T16:07:59;15;14;
76679;PMS5003;65597;51.520;-0.224;2022-12-07T16:10:24;15;15;
76679;PMS5003;65597;51.520;-0.224;2022-12-07T16:12:50;16;15;
76679;PMS5003;65597;51.520;-0.224;2022-12-07T16:15:15;15;14;
76679;PMS5003;65597;51.520;-0.224;2022-12-07T16:17:41;16;14;
76679;PMS5003;65597;51.520;-0.224;2022-12-07T16:20:07;15;14;
76679;PMS5003;65597;51.520;-0.224;2022-12-07T16:22:32;27;18;
76679;PMS5003;65597;51.520;-0.224;2022-12-07T16:24:58;17;15;
76679;PMS5003;65597;51.520;-0.224;2022-12-07T16:27:23;19;17;
76679;PMS5003;65597;51.520;-0.224;2022-12-07T16:29:48;21;17;